Time;durP1;ratioP1;P1;durP2;ratioP2;P2;SDS_P1;SDS_P2;PMS_P1;PMS_P2;Temp;Humidity;BMP_temperature;BMP_pressure;BME280_temperature;BME280_humidity;BME280_pressure;Samples;Min_cycle;Max_cycle;Signal;HPM_P1;HPM_P2
2023/09/26 00:00:59;;;;;;;11.50;4.95;;;;;;;21.16;46.18;94193.19;5085428;28;20042;-80
2023/09/26 00:03:25;;;;;;;12.40;4.68;;;;;;;21.23;46.30;94190.53;5086148;28;20058;-81
2023/09/26 00:05:54;;;;;;;7.03;4.25;;;;;;;21.24;46.32;94194.03;5086242;28;20720;-81
2023/09/26 00:08:19;;;;;;;14.85;5.38;;;;;;;21.26;46.24;94192.53;5083177;28;20028;-80
2023/09/26 00:10:49;;;;;;;11.82;5.15;;;;;;;21.34;46.49;94202.25;5086128;28;20105;-81
2023/09/26 00:13:15;;;;;;;15.80;6.13;;;;;;;21.25;46.65;94199.06;5085719;28;20265;-79
2023/09/26 00:15:41;;;;;;;10.77;4.50;;;;;;;21.28;46.42;94203.72;5085832;28;20067;-80
2023/09/26 00:18:06;;;;;;;10.13;5.07;;;;;;;21.31;46.61;94194.13;5086013;28;20047;-81
2023/09/26 00:20:35;;;;;;;13.90;6.28;;;;;;;21.10;46.98;94204.69;5085740;28;20012;-80
2023/09/26 00:23:01;;;;;;;19.70;5.57;;;;;;;20.93;47.10;94185.19;5085099;28;20137;-81
2023/09/26 00:25:27;;;;;;;12.60;5.20;;;;;;;20.92;47.29;94201.81;5115362;27;20044;-79
2023/09/26 00:27:53;;;;;;;13.85;6.57;;;;;;;20.90;47.51;94206.78;5080791;28;20074;-79
2023/09/26 00:30:20;;;;;;;12.02;4.72;;;;;;;20.98;47.57;94197.59;5084384;28;20616;-80
2023/09/26 00:32:45;;;;;;;9.65;4.45;;;;;;;20.91;47.46;94189.44;5088132;28;20027;-80
2023/09/26 00:35:12;;;;;;;10.68;5.63;;;;;;;20.91;47.50;94192.13;5083898;28;20027;-80
2023/09/26 00:37:39;;;;;;;16.25;5.40;;;;;;;20.90;47.44;94196.75;5084938;28;20237;-80
2023/09/26 00:40:07;;;;;;;12.48;5.38;;;;;;;20.95;47.50;94195.66;5084491;28;20038;-80
2023/09/26 00:42:32;;;;;;;13.20;5.28;;;;;;;20.88;47.63;94190.16;5087118;28;20031;-80
2023/09/26 00:44:58;;;;;;;10.05;5.40;;;;;;;20.87;47.49;94185.91;5085642;28;20068;-79
2023/09/26 00:47:24;;;;;;;11.02;4.60;;;;;;;20.97;47.25;94193.38;5086892;28;20047;-79
2023/09/26 00:49:49;;;;;;;12.65;4.70;;;;;;;20.98;47.43;94195.69;5082734;28;20043;-80
2023/09/26 00:52:15;;;;;;;14.63;6.32;;;;;;;20.93;47.16;94192.53;5084372;28;20040;-79
2023/09/26 00:54:40;;;;;;;11.75;5.25;;;;;;;20.99;47.58;94196.47;5083547;28;20462;-80
2023/09/26 00:57:06;;;;;;;17.83;5.65;;;;;;;20.92;47.87;94199.84;5084405;28;20039;-79
2023/09/26 00:59:32;;;;;;;13.57;6.03;;;;;;;20.88;47.81;94199.03;5083664;28;20471;-80
2023/09/26 01:01:58;;;;;;;12.40;5.30;;;;;;;20.87;47.50;94199.44;5085675;28;20835;-79
2023/09/26 01:04:23;;;;;;;8.95;5.05;;;;;;;20.82;47.97;94197.03;5082313;28;20038;-80
2023/09/26 01:06:49;;;;;;;13.23;5.03;;;;;;;20.71;47.85;94193.41;5091130;28;20040;-80
2023/09/26 01:09:15;;;;;;;12.55;5.82;;;;;;;20.71;47.97;94193.41;5085152;28;20546;-79
2023/09/26 01:11:41;;;;;;;11.50;5.80;;;;;;;20.74;48.12;94192.66;5086349;28;20425;-80
2023/09/26 01:14:06;;;;;;;8.65;5.20;;;;;;;20.69;47.88;94201.88;5086615;28;20125;-80
2023/09/26 01:16:32;;;;;;;12.63;5.80;;;;;;;20.66;48.19;94177.50;5088082;28;20913;-80
2023/09/26 01:18:57;;;;;;;12.00;5.35;;;;;;;20.63;48.20;94197.94;5085107;28;20036;-80
2023/09/26 01:21:23;;;;;;;13.38;6.43;;;;;;;20.60;48.10;94172.44;5084706;28;20035;-80
2023/09/26 01:23:54;;;;;;;14.75;5.22;;;;;;;20.60;48.11;94180.53;5082007;28;20084;-80
2023/09/26 01:26:49;;;;;;;12.93;5.55;;;;;;;20.60;48.09;94188.66;5082174;28;20510;-80
2023/09/26 01:29:15;;;;;;;15.60;5.90;;;;;;;20.46;48.21;94180.38;5081927;28;20056;-79
2023/09/26 01:31:41;;;;;;;8.07;4.80;;;;;;;20.58;48.02;94196.34;5084921;28;20277;-80
2023/09/26 01:34:07;;;;;;;12.10;5.65;;;;;;;20.50;47.95;94183.88;5086290;28;20086;-80
2023/09/26 01:36:33;;;;;;;11.98;5.63;;;;;;;20.55;48.19;94197.06;5086257;28;20741;-80
2023/09/26 01:38:59;;;;;;;15.95;5.70;;;;;;;20.56;47.97;94200.56;5090573;28;20035;-79
2023/09/26 01:41:26;;;;;;;9.55;4.70;;;;;;;20.56;47.74;94198.63;5090091;28;20026;-80
2023/09/26 01:43:52;;;;;;;9.32;4.95;;;;;;;20.45;47.70;94186.91;5095703;28;20576;-80
2023/09/26 01:46:19;;;;;;;15.40;6.35;;;;;;;20.44;47.88;94182.63;5088675;28;20031;-80
2023/09/26 01:48:45;;;;;;;8.02;5.32;;;;;;;20.50;47.92;94194.69;5088878;28;20406;-80
2023/09/26 01:51:10;;;;;;;6.97;4.97;;;;;;;20.43;47.79;94183.81;5092485;28;20038;-79
2023/09/26 01:53:36;;;;;;;12.30;6.18;;;;;;;20.47;47.57;94184.63;5089516;28;20038;-79
2023/09/26 01:56:01;;;;;;;15.23;5.38;;;;;;;20.23;47.41;94141.09;5088427;28;20043;-80
2023/09/26 01:58:27;;;;;;;9.50;4.97;;;;;;;20.39;47.47;94182.97;5090250;27;20036;-79
2023/09/26 02:00:53;;;;;;;11.77;4.50;;;;;;;20.46;47.73;94203.91;5087945;28;20499;-79
2023/09/26 02:03:19;;;;;;;15.30;5.72;;;;;;;20.45;47.54;94197.72;5089825;28;20055;-80
2023/09/26 02:05:45;;;;;;;11.80;5.00;;;;;;;20.47;47.62;94200.06;5093250;28;20507;-80
2023/09/26 02:08:11;;;;;;;11.88;5.00;;;;;;;20.46;47.43;94203.91;5089208;28;20019;-80
2023/09/26 02:10:36;;;;;;;10.18;4.90;;;;;;;20.41;47.53;94202.28;5089715;28;20036;-79
2023/09/26 02:13:02;;;;;;;11.38;5.32;;;;;;;20.45;47.34;94207.75;5089673;28;20188;-80
2023/09/26 02:15:27;;;;;;;8.70;4.90;;;;;;;20.47;47.38;94208.16;5087312;28;20549;-79
2023/09/26 02:17:52;;;;;;;13.23;5.57;;;;;;;20.38;46.90;94196.84;5088884;28;20463;-80
2023/09/26 02:20:19;;;;;;;13.20;4.93;;;;;;;20.22;46.74;94180.81;5089920;28;20030;-80
2023/09/26 02:22:49;;;;;;;8.35;4.97;;;;;;;20.35;46.32;94208.38;5087353;28;20023;-78
2023/09/26 02:25:21;;;;;;;12.93;5.60;;;;;;;20.25;46.89;94190.88;5089910;28;20063;-79
2023/09/26 02:27:47;;;;;;;10.15;5.20;;;;;;;20.36;47.09;94205.31;5091557;28;20039;-80
2023/09/26 02:30:14;;;;;;;12.02;5.68;;;;;;;20.34;47.33;94185.19;5088386;28;20079;-79
2023/09/26 02:32:40;;;;;;;15.00;5.13;;;;;;;20.40;47.20;94198.03;5086107;28;20537;-80
2023/09/26 02:35:13;;;;;;;11.48;4.97;;;;;;;20.41;46.56;94196.09;5087709;28;20043;-80
2023/09/26 02:37:40;;;;;;;9.48;4.72;;;;;;;20.27;46.15;94169.69;5115849;27;20040;-79
2023/09/26 02:40:12;;;;;;;13.88;5.68;;;;;;;20.43;45.95;94199.25;5089283;28;20028;-79
2023/09/26 02:42:40;;;;;;;10.45;5.38;;;;;;;20.40;45.66;94195.31;5085947;28;20111;-79
2023/09/26 02:45:07;;;;;;;24.00;5.65;;;;;;;20.17;45.14;94171.09;5088872;28;20028;-79
2023/09/26 02:47:33;;;;;;;15.57;5.32;;;;;;;20.30;44.51;94184.38;5089481;28;20027;-80
2023/09/26 02:49:58;;;;;;;9.70;4.53;;;;;;;20.28;43.98;94194.78;5089024;28;20028;-80
2023/09/26 02:52:24;;;;;;;8.32;4.82;;;;;;;20.17;43.89;94173.03;5086655;28;20036;-79
2023/09/26 02:54:50;;;;;;;11.52;3.80;;;;;;;20.12;42.70;94193.00;5089111;28;20397;-80
2023/09/26 02:57:17;;;;;;;13.57;4.30;;;;;;;20.01;42.58;94178.56;5085423;28;20032;-80
2023/09/26 02:59:43;;;;;;;8.82;4.00;;;;;;;19.99;41.91;94180.06;5088414;28;20015;-80
2023/09/26 03:02:08;;;;;;;11.77;4.18;;;;;;;19.94;41.44;94202.75;5087080;28;20731;-80
2023/09/26 03:04:33;;;;;;;9.65;3.42;;;;;;;19.93;41.13;94203.09;5086158;28;20130;-80
2023/09/26 03:06:59;;;;;;;10.60;3.53;;;;;;;19.95;41.10;94192.72;5087905;28;20956;-80
2023/09/26 03:09:24;;;;;;;19.63;4.20;;;;;;;19.97;40.95;94196.63;5088437;28;20061;-80
2023/09/26 03:11:50;;;;;;;13.98;4.10;;;;;;;20.03;40.76;94205.19;5093229;28;20059;-79
2023/09/26 03:14:17;;;;;;;22.80;4.57;;;;;;;20.00;40.48;94203.19;5086444;28;20105;-80
2023/09/26 03:16:44;;;;;;;11.23;4.10;;;;;;;19.67;40.26;94199.22;5089108;28;20051;-80
2023/09/26 03:19:10;;;;;;;18.67;3.53;;;;;;;19.51;40.81;94203.97;5088825;28;20342;-80
2023/09/26 03:21:36;;;;;;;7.65;3.17;;;;;;;19.64;40.48;94199.97;5087558;28;20440;-80
2023/09/26 03:24:01;;;;;;;16.98;3.70;;;;;;;19.83;40.01;94192.94;5086692;28;20051;-80
2023/09/26 03:26:28;;;;;;;15.75;3.35;;;;;;;19.79;39.65;94184.78;5085581;28;20035;-80
2023/09/26 03:28:54;;;;;;;14.77;3.47;;;;;;;19.85;39.12;94201.44;5092090;28;20048;-81
2023/09/26 03:31:19;;;;;;;11.20;3.33;;;;;;;19.73;39.05;94195.09;5088178;28;20748;-80
2023/09/26 03:33:45;;;;;;;10.90;3.88;;;;;;;19.95;39.33;94209.69;5085532;28;20503;-80
2023/09/26 03:36:10;;;;;;;13.73;4.05;;;;;;;19.69;39.27;94182.69;5084715;28;20452;-80
2023/09/26 03:38:35;;;;;;;13.10;4.28;;;;;;;19.68;39.07;94200.03;5087266;28;20060;-81
2023/09/26 03:41:03;;;;;;;10.52;3.40;;;;;;;19.50;39.75;94212.44;5091886;28;20059;-81
2023/09/26 03:43:29;;;;;;;8.52;3.10;;;;;;;19.39;39.52;94166.38;5086775;28;20040;-81
2023/09/26 03:46:01;;;;;;;16.15;3.17;;;;;;;19.35;39.50;94173.63;5087987;28;20035;-80
2023/09/26 03:48:27;;;;;;;14.63;3.97;;;;;;;19.40;39.76;94216.47;5085334;28;20067;-81
2023/09/26 03:50:52;;;;;;;11.77;4.03;;;;;;;19.40;39.90;94207.59;5087334;28;20106;-81
2023/09/26 03:53:18;;;;;;;14.35;3.88;;;;;;;19.47;39.69;94215.84;5091299;28;20449;-81
2023/09/26 03:55:43;;;;;;;11.07;3.97;;;;;;;19.46;39.78;94204.25;5086457;28;20507;-80
2023/09/26 03:58:09;;;;;;;19.10;3.80;;;;;;;19.45;39.88;94205.44;5086140;28;20036;-81
2023/09/26 04:00:34;;;;;;;15.15;3.40;;;;;;;19.44;40.00;94213.84;5086506;28;20060;-81
2023/09/26 04:03:01;;;;;;;13.27;3.80;;;;;;;19.46;39.98;94228.53;5087891;28;20023;-80
2023/09/26 04:05:27;;;;;;;16.33;3.63;;;;;;;19.60;39.79;94223.38;5088521;28;20015;-81
2023/09/26 04:07:53;;;;;;;12.90;3.60;;;;;;;19.66;39.56;94213.84;5085287;28;20062;-80
2023/09/26 04:10:18;;;;;;;17.98;4.05;;;;;;;19.62;39.66;94221.13;5087467;28;20024;-81
2023/09/26 04:12:44;;;;;;;13.25;3.55;;;;;;;19.46;39.75;94219.66;5086371;28;20039;-81
2023/09/26 04:15:09;;;;;;;11.15;3.65;;;;;;;19.57;39.75;94218.72;5086025;28;20056;-80
2023/09/26 04:17:35;;;;;;;14.40;3.35;;;;;;;19.54;40.04;94230.25;5086989;28;20031;-81
2023/09/26 04:20:12;;;;;;;13.73;4.43;;;;;;;19.62;39.81;94237.31;5083949;28;20040;-80
2023/09/26 04:22:37;;;;;;;12.18;3.35;;;;;;;19.41;39.97;94199.13;5086318;28;20031;-80
2023/09/26 04:25:03;;;;;;;14.65;3.70;;;;;;;19.78;40.07;94236.41;5087498;28;20411;-81
2023/09/26 04:27:28;;;;;;;14.32;4.00;;;;;;;19.57;39.83;94234.13;5086591;28;20097;-80
2023/09/26 04:29:54;;;;;;;17.67;4.10;;;;;;;19.65;40.13;94220.38;5085561;28;20034;-80
2023/09/26 04:32:20;;;;;;;16.10;3.60;;;;;;;19.67;39.96;94214.66;5087409;28;20090;-81
2023/09/26 04:34:46;;;;;;;11.82;3.15;;;;;;;19.73;39.96;94215.91;5084326;28;20296;-81
2023/09/26 04:37:11;;;;;;;11.57;3.17;;;;;;;19.62;40.29;94209.53;5085544;28;20044;-81
2023/09/26 04:39:37;;;;;;;10.43;3.78;;;;;;;19.67;40.66;94228.91;5083159;28;20035;-81
2023/09/26 04:42:03;;;;;;;12.57;3.60;;;;;;;19.67;40.14;94233.53;5087756;28;20123;-81
2023/09/26 04:44:28;;;;;;;13.10;3.67;;;;;;;19.71;40.40;94235.16;5085841;28;20035;-80
2023/09/26 04:46:53;;;;;;;17.55;4.07;;;;;;;19.63;40.78;94228.09;5085656;28;20047;-81
2023/09/26 04:49:19;;;;;;;14.82;3.65;;;;;;;19.71;40.64;94240.53;5085419;28;20187;-80
2023/09/26 04:51:44;;;;;;;18.13;4.45;;;;;;;19.67;40.82;94236.22;5086688;28;20469;-80
2023/09/26 04:54:10;;;;;;;14.93;4.30;;;;;;;19.69;40.71;94237.44;5086229;28;20039;-81
2023/09/26 04:56:36;;;;;;;9.85;3.45;;;;;;;19.53;41.35;94244.88;5088450;28;20335;-80
2023/09/26 04:59:04;;;;;;;13.13;4.22;;;;;;;19.52;41.23;94256.78;5085107;28;20716;-81
2023/09/26 05:01:29;;;;;;;13.77;4.60;;;;;;;19.38;41.20;94231.44;5087761;28;20484;-81
2023/09/26 05:03:55;;;;;;;17.17;4.82;;;;;;;19.61;41.23;94230.34;5087273;28;20051;-80
2023/09/26 05:06:21;;;;;;;15.18;3.83;;;;;;;19.79;41.19;94240.69;5086406;28;20043;-80
2023/09/26 05:08:46;;;;;;;13.38;3.95;;;;;;;19.71;41.08;94240.53;5083542;28;20015;-80
2023/09/26 05:11:13;;;;;;;14.65;4.50;;;;;;;19.45;41.75;94242.41;5084366;28;20024;-81
2023/09/26 05:13:39;;;;;;;20.02;4.38;;;;;;;19.51;41.61;94252.53;5081428;28;20038;-81
2023/09/26 05:16:07;;;;;;;9.68;4.05;;;;;;;19.67;41.63;94253.19;5083681;28;20067;-81
2023/09/26 05:18:33;;;;;;;12.05;3.53;;;;;;;19.65;41.54;94247.38;5089693;28;20086;-81
2023/09/26 05:20:59;;;;;;;18.15;4.25;;;;;;;19.61;41.93;94259.25;5080807;28;20677;-80
2023/09/26 05:23:24;;;;;;;16.05;4.30;;;;;;;19.51;42.04;94260.63;5083593;28;20027;-80
2023/09/26 05:25:49;;;;;;;19.90;4.95;;;;;;;19.38;41.98;94237.63;5088349;28;20422;-80
2023/09/26 05:28:15;;;;;;;17.63;4.15;;;;;;;19.50;41.83;94255.59;5092192;28;20118;-81
2023/09/26 05:30:41;;;;;;;9.38;3.70;;;;;;;19.56;41.90;94270.31;5087924;27;20051;-81
2023/09/26 05:33:08;;;;;;;17.83;3.33;;;;;;;19.44;42.14;94249.69;5088670;28;20027;-80
2023/09/26 05:35:33;;;;;;;16.02;5.05;;;;;;;19.42;41.75;94251.94;5093065;28;20024;-80
2023/09/26 05:37:59;;;;;;;7.85;4.00;;;;;;;19.63;41.64;94251.59;5085823;28;20085;-80
2023/09/26 05:40:24;;;;;;;13.93;4.43;;;;;;;19.25;42.10;94260.50;5090587;27;20102;-80
2023/09/26 05:42:49;;;;;;;12.30;4.32;;;;;;;19.28;42.36;94244.38;5088042;27;20479;-80
2023/09/26 05:45:16;;;;;;;16.40;3.88;;;;;;;19.42;42.45;94270.81;5088781;28;20496;-81
2023/09/26 05:47:42;;;;;;;22.75;5.10;;;;;;;19.56;42.70;94243.34;5090917;27;20027;-81
2023/09/26 05:50:08;;;;;;;19.67;4.60;;;;;;;19.73;42.03;94257.16;5089912;28;20035;-80
2023/09/26 05:52:33;;;;;;;10.23;4.13;;;;;;;19.77;42.10;94261.84;5085969;28;20040;-79
2023/09/26 05:54:59;;;;;;;10.48;3.97;;;;;;;19.96;42.39;94261.75;5080984;28;20039;-80
2023/09/26 05:57:27;;;;;;;18.40;3.75;;;;;;;19.94;41.96;94272.16;5078841;27;20140;-81
2023/09/26 05:59:54;;;;;;;9.77;3.97;;;;;;;20.05;42.13;94275.78;5082709;28;20531;-80
2023/09/26 06:02:19;;;;;;;11.40;3.35;;;;;;;20.00;41.33;94260.69;5084145;28;20273;-80
2023/09/26 06:04:45;;;;;;;10.38;3.15;;;;;;;19.99;41.40;94277.25;5080801;28;20055;-79
2023/09/26 06:07:12;;;;;;;27.83;4.47;;;;;;;19.98;41.31;94275.69;5079608;27;20885;-80
2023/09/26 06:09:38;;;;;;;15.00;4.65;;;;;;;19.94;42.11;94272.16;5088488;28;20040;-79
2023/09/26 06:12:04;;;;;;;17.60;4.38;;;;;;;19.56;42.00;94254.94;5081446;28;20483;-80
2023/09/26 06:14:32;;;;;;;17.55;3.58;;;;;;;19.60;42.00;94255.75;5087281;28;20028;-80
2023/09/26 06:16:59;;;;;;;12.55;4.70;;;;;;;19.51;42.34;94271.41;5082679;28;20032;-80
2023/09/26 06:19:24;;;;;;;18.67;3.83;;;;;;;19.62;42.55;94275.09;5083161;28;20095;-80
2023/09/26 06:21:49;;;;;;;19.25;4.22;;;;;;;19.89;42.58;94275.16;5082706;28;20054;-80
2023/09/26 06:24:15;;;;;;;9.98;3.38;;;;;;;20.05;42.09;94267.69;5080390;28;20093;-80
2023/09/26 06:26:42;;;;;;;13.10;4.22;;;;;;;20.01;42.30;94277.66;5081829;28;20023;-80
2023/09/26 06:29:08;;;;;;;16.80;4.00;;;;;;;20.17;42.01;94278.34;5080236;28;20051;-80
2023/09/26 06:31:33;;;;;;;16.15;3.88;;;;;;;20.06;41.92;94248.44;5080587;27;20309;-80
2023/09/26 06:34:01;;;;;;;14.45;3.70;;;;;;;19.95;41.98;94255.59;5079286;27;20047;-80
2023/09/26 06:36:31;;;;;;;10.68;3.25;;;;;;;20.04;41.52;94261.50;5079579;28;20100;-79
2023/09/26 06:38:58;;;;;;;15.88;4.60;;;;;;;20.02;42.15;94266.50;5087584;27;20035;-79
2023/09/26 06:41:24;;;;;;;14.05;3.63;;;;;;;20.13;42.44;94269.38;5084075;28;20031;-80
2023/09/26 06:43:49;;;;;;;17.52;4.10;;;;;;;20.26;42.03;94256.47;5078842;28;20071;-81
2023/09/26 06:46:15;;;;;;;14.85;3.70;;;;;;;20.31;42.32;94275.84;5084205;28;20658;-80
2023/09/26 06:48:42;;;;;;;16.80;4.68;;;;;;;20.33;42.36;94262.00;5087947;28;20085;-80
2023/09/26 06:51:08;;;;;;;9.27;3.65;;;;;;;20.31;42.20;94266.97;5088200;28;20046;-80
2023/09/26 06:53:34;;;;;;;13.85;3.60;;;;;;;20.30;42.74;94282.41;5086569;28;20065;-80
2023/09/26 06:56:07;;;;;;;13.93;3.75;;;;;;;20.31;42.21;94258.88;5086229;28;20027;-80
2023/09/26 06:58:33;;;;;;;19.35;3.75;;;;;;;20.42;42.47;94254.41;5085870;28;20036;-80
2023/09/26 07:00:59;;;;;;;15.15;4.22;;;;;;;20.75;42.30;94270.69;5079593;28;20032;-79
2023/09/26 07:03:27;;;;;;;13.48;3.78;;;;;;;20.50;42.32;94264.94;5084857;28;20324;-81
2023/09/26 07:05:56;;;;;;;15.15;4.25;;;;;;;20.46;43.03;94264.13;5087320;28;20131;-81
2023/09/26 07:08:22;;;;;;;13.27;4.30;;;;;;;20.73;42.56;94274.91;5085656;28;20015;-80
2023/09/26 07:10:47;;;;;;;15.82;4.72;;;;;;;20.51;42.85;94271.91;5086944;28;20373;-81
2023/09/26 07:13:13;;;;;;;10.18;4.10;;;;;;;20.15;44.52;94280.59;5086681;28;20044;-81
2023/09/26 07:15:40;;;;;;;13.13;3.47;;;;;;;20.35;43.75;94273.19;5085616;28;20066;-81
2023/09/26 07:18:09;;;;;;;17.92;4.13;;;;;;;20.55;43.65;94278.13;5085369;28;20050;-81
2023/09/26 07:20:43;;;;;;;14.65;5.18;;;;;;;20.73;43.29;94275.66;5085556;28;20061;-81
2023/09/26 07:23:09;;;;;;;21.48;4.57;;;;;;;20.55;43.63;94282.75;5090381;28;20043;-81
2023/09/26 07:25:34;;;;;;;17.48;4.85;;;;;;;20.49;43.22;94268.00;5088610;28;20064;-80
2023/09/26 07:27:59;;;;;;;20.63;5.32;;;;;;;20.48;43.29;94266.47;5087503;27;20047;-81
2023/09/26 07:30:26;;;;;;;14.02;5.45;;;;;;;20.35;43.50;94268.56;5084218;28;20058;-81
2023/09/26 07:32:51;;;;;;;14.88;4.65;;;;;;;20.28;42.72;94256.91;5084659;28;21056;-80
2023/09/26 07:35:17;;;;;;;18.17;4.70;;;;;;;20.48;42.75;94255.66;5090334;28;20154;-81
2023/09/26 07:37:42;;;;;;;16.60;4.63;;;;;;;20.32;43.41;94273.94;5082072;28;20032;-81
2023/09/26 07:40:09;;;;;;;17.85;4.22;;;;;;;20.35;43.49;94257.78;5083339;28;20407;-81
2023/09/26 07:42:35;;;;;;;24.05;5.03;;;;;;;20.34;43.00;94255.44;5084961;28;20867;-81
2023/09/26 07:45:01;;;;;;;15.82;5.07;;;;;;;20.30;44.23;94265.41;5085907;28;20035;-81
2023/09/26 07:47:28;;;;;;;15.77;3.70;;;;;;;20.27;44.10;94271.53;5084174;28;20584;-81
2023/09/26 07:49:53;;;;;;;13.73;4.30;;;;;;;20.51;43.11;94255.69;5090837;28;20064;-81
2023/09/26 07:52:22;;;;;;;21.05;4.85;;;;;;;20.62;43.31;94253.16;5085674;28;20819;-81
2023/09/26 07:54:48;;;;;;;18.05;4.93;;;;;;;20.15;43.45;94254.34;5084726;28;20055;-81
2023/09/26 07:57:13;;;;;;;14.70;4.82;;;;;;;20.33;42.25;94237.69;5086393;27;20071;-81
2023/09/26 07:59:39;;;;;;;16.27;4.35;;;;;;;20.40;42.96;94249.34;5088078;28;20808;-81
2023/09/26 08:02:04;;;;;;;11.15;4.25;;;;;;;20.71;42.68;94239.34;5085795;28;20085;-81
2023/09/26 08:04:32;;;;;;;17.73;5.35;;;;;;;20.23;42.21;94233.69;5084673;28;20035;-81
2023/09/26 08:06:57;;;;;;;18.70;4.20;;;;;;;20.15;41.98;94231.97;5084128;28;20032;-80
2023/09/26 08:09:23;;;;;;;21.02;4.43;;;;;;;20.33;41.04;94249.28;5086452;28;20027;-81
2023/09/26 08:11:48;;;;;;;11.52;4.15;;;;;;;19.98;42.04;94241.38;5086739;28;20023;-80
2023/09/26 08:14:13;;;;;;;16.13;4.18;;;;;;;20.06;41.44;94256.53;5087334;28;20387;-80
2023/09/26 08:16:39;;;;;;;12.70;3.60;;;;;;;20.28;41.30;94241.47;5086576;28;20856;-80
2023/09/26 08:19:04;;;;;;;20.15;4.35;;;;;;;20.37;41.96;94239.28;5082381;28;20127;-80
2023/09/26 08:21:29;;;;;;;16.73;4.32;;;;;;;20.62;42.11;94241.56;5084550;28;20139;-80
2023/09/26 08:23:56;;;;;;;11.13;4.13;;;;;;;20.75;41.93;94242.88;5085920;28;20035;-80
2023/09/26 08:26:22;;;;;;;14.38;4.32;;;;;;;20.57;40.63;94242.66;5085093;28;20053;-81
2023/09/26 08:28:47;;;;;;;10.90;3.75;;;;;;;20.50;40.29;94229.81;5082852;28;20654;-81
2023/09/26 08:31:15;;;;;;;11.13;4.07;;;;;;;20.74;40.67;94242.09;5086156;28;20043;-80
2023/09/26 08:33:44;;;;;;;15.38;4.70;;;;;;;20.66;40.59;94234.28;5082716;28;20047;-80
2023/09/26 08:36:17;;;;;;;22.00;4.78;;;;;;;20.63;40.91;94224.19;5082013;28;20032;-80
2023/09/26 08:38:44;;;;;;;12.02;4.00;;;;;;;20.47;41.17;94233.25;5086243;28;20035;-79
2023/09/26 08:41:10;;;;;;;12.75;4.45;;;;;;;20.41;41.53;94240.13;5083346;28;20028;-78
2023/09/26 08:43:36;;;;;;;11.55;4.57;;;;;;;20.46;41.29;94237.09;5085302;28;20038;-79
2023/09/26 08:46:02;;;;;;;13.63;4.53;;;;;;;20.69;40.82;94228.13;5084052;28;20036;-79
2023/09/26 08:48:27;;;;;;;16.75;4.05;;;;;;;20.92;39.26;94236.97;5094707;28;20042;-78
2023/09/26 08:50:53;;;;;;;17.00;3.88;;;;;;;20.80;38.83;94229.03;5084562;28;20028;-80
2023/09/26 08:53:18;;;;;;;16.98;3.53;;;;;;;20.75;39.10;94232.84;5091417;28;20016;-79
2023/09/26 08:55:45;;;;;;;15.25;3.72;;;;;;;20.87;39.36;94239.97;5088462;28;20074;-79
2023/09/26 08:58:14;;;;;;;12.80;3.78;;;;;;;20.90;39.78;94217.59;5096596;28;20035;-81
2023/09/26 09:00:40;;;;;;;11.90;4.03;;;;;;;20.84;39.41;94237.97;5088486;28;20036;-80
2023/09/26 09:03:06;;;;;;;14.25;4.20;;;;;;;20.78;40.00;94225.91;5090298;28;20043;-81
2023/09/26 09:05:31;;;;;;;19.42;3.85;;;;;;;20.44;40.16;94212.34;5089356;28;20028;-81
2023/09/26 09:07:57;;;;;;;10.57;4.38;;;;;;;20.38;40.63;94235.44;5089132;28;20081;-79
2023/09/26 09:10:23;;;;;;;13.48;4.43;;;;;;;20.56;40.82;94232.97;5087420;28;20044;-80
2023/09/26 09:12:49;;;;;;;8.35;4.20;;;;;;;20.72;40.62;94217.38;5089421;28;20334;-80
2023/09/26 09:15:15;;;;;;;13.80;4.38;;;;;;;20.80;39.60;94224.41;5089091;28;20152;-80
2023/09/26 09:17:45;;;;;;;18.00;4.90;;;;;;;21.05;39.56;94230.16;5087574;28;20510;-80
2023/09/26 09:20:18;;;;;;;10.20;3.70;;;;;;;21.20;40.72;94229.16;5093835;28;20523;-81
2023/09/26 09:22:48;;;;;;;17.00;4.45;;;;;;;21.24;39.82;94226.50;5089394;28;20086;-81
2023/09/26 09:25:14;;;;;;;14.85;4.45;;;;;;;20.60;40.10;94204.88;5086707;28;20040;-81
2023/09/26 09:27:43;;;;;;;14.52;3.90;;;;;;;20.84;40.01;94205.53;5087874;28;20038;-81
2023/09/26 09:30:12;;;;;;;14.15;3.28;;;;;;;20.96;39.26;94221.56;5086113;28;20048;-80
2023/09/26 09:32:44;;;;;;;14.40;4.68;;;;;;;20.89;39.78;94211.41;5089310;28;20027;-80
2023/09/26 09:35:15;;;;;;;10.13;3.80;;;;;;;20.81;39.62;94200.88;5089177;28;20036;-80
2023/09/26 09:37:49;;;;;;;12.82;4.10;;;;;;;20.76;40.24;94203.91;5088300;28;20601;-80
2023/09/26 09:40:23;;;;;;;16.27;4.03;;;;;;;20.77;40.42;94218.97;5088617;28;20028;-81
2023/09/26 09:42:50;;;;;;;12.77;4.28;;;;;;;21.02;41.05;94217.38;5117466;27;20788;-80
2023/09/26 09:45:16;;;;;;;8.25;3.22;;;;;;;20.90;39.88;94212.19;5087321;28;20043;-81
2023/09/26 09:47:45;;;;;;;16.38;4.13;;;;;;;20.92;40.84;94215.31;5086453;28;20164;-81
2023/09/26 09:50:12;;;;;;;16.27;4.28;;;;;;;20.84;40.28;94197.41;5087560;27;20054;-80
2023/09/26 09:52:41;;;;;;;13.25;3.97;;;;;;;21.07;39.91;94213.56;5074088;27;20491;-81
2023/09/26 09:55:09;;;;;;;14.32;3.60;;;;;;;21.25;40.35;94207.19;5084646;28;20036;-81
2023/09/26 09:57:41;;;;;;;10.13;3.50;;;;;;;21.25;39.65;94211.81;5092538;28;20548;-81
2023/09/26 10:00:08;;;;;;;12.30;3.55;;;;;;;21.26;39.30;94208.75;5093340;28;20118;-80
2023/09/26 10:02:36;;;;;;;8.43;3.58;;;;;;;21.39;40.12;94191.09;5090291;28;20027;-81
2023/09/26 10:05:06;;;;;;;10.65;3.95;;;;;;;21.63;39.94;94183.59;5089124;28;20038;-81
2023/09/26 10:07:32;;;;;;;12.23;3.10;;;;;;;21.85;38.98;94185.34;5088332;28;20132;-81
2023/09/26 10:09:58;;;;;;;11.32;3.78;;;;;;;21.83;38.95;94206.59;5082361;28;20699;-81
2023/09/26 10:12:42;;;;;;;12.27;3.95;;;;;;;21.20;39.66;94204.81;5083766;28;20094;-81
2023/09/26 10:15:11;;;;;;;10.27;5.17;;;;;;;21.62;39.26;94193.66;5086994;28;20047;-80
2023/09/26 10:17:53;;;;;;;16.33;4.05;;;;;;;21.26;39.52;94206.06;5082476;28;20071;-81
2023/09/26 10:20:19;;;;;;;14.25;4.25;;;;;;;21.44;40.53;94193.47;5083495;28;20041;-80
2023/09/26 10:22:44;;;;;;;14.13;4.47;;;;;;;21.18;39.15;94158.41;5085375;28;20220;-81
2023/09/26 10:25:23;;;;;;;15.98;4.32;;;;;;;21.35;39.40;94187.59;5089472;28;20044;-81
2023/09/26 10:27:48;;;;;;;10.02;4.35;;;;;;;21.36;39.03;94186.41;5086711;28;20092;-81
2023/09/26 10:30:14;;;;;;;17.48;4.40;;;;;;;21.79;38.77;94192.25;5084727;28;20540;-80
2023/09/26 10:32:42;;;;;;;17.67;4.85;;;;;;;21.42;39.55;94190.34;5087314;28;20024;-81
2023/09/26 10:35:13;;;;;;;12.27;4.80;;;;;;;21.70;39.04;94186.38;5065437;28;20036;-80
2023/09/26 10:37:48;;;;;;;13.85;4.72;;;;;;;21.86;38.63;94176.81;5066869;28;20502;-80
2023/09/26 10:40:15;;;;;;;16.25;4.63;;;;;;;21.80;39.15;94185.69;5064569;28;20345;-81
2023/09/26 10:42:46;;;;;;;12.85;4.32;;;;;;;21.66;38.78;94161.19;5064856;28;20032;-78
2023/09/26 10:45:12;;;;;;;13.82;4.93;;;;;;;21.26;39.79;94180.91;5063230;28;20032;-79
2023/09/26 10:47:40;;;;;;;12.23;4.20;;;;;;;21.56;39.60;94172.72;5066808;28;20651;-79
2023/09/26 10:50:12;;;;;;;11.65;4.20;;;;;;;21.70;39.34;94180.97;5066588;28;20043;-79
2023/09/26 10:52:41;;;;;;;14.90;4.88;;;;;;;21.65;38.39;94167.78;5063998;28;20047;-79
2023/09/26 10:55:07;;;;;;;9.07;5.25;;;;;;;21.51;39.57;94164.91;5065127;28;20501;-79
2023/09/26 10:57:33;;;;;;;23.02;4.38;;;;;;;21.78;39.58;94166.31;5064526;28;20051;-78
2023/09/26 10:59:58;;;;;;;13.20;4.50;;;;;;;21.53;39.12;94151.78;5064789;28;20044;-80
2023/09/26 11:02:23;;;;;;;10.43;3.72;;;;;;;21.54;39.35;94164.16;5063510;28;20153;-80
2023/09/26 11:04:50;;;;;;;11.85;4.55;;;;;;;21.69;39.21;94149.63;5064511;28;20431;-80
2023/09/26 11:07:16;;;;;;;8.35;3.75;;;;;;;21.73;39.13;94153.13;5064554;28;20090;-79
2023/09/26 11:09:44;;;;;;;13.70;4.25;;;;;;;21.50;38.97;94144.41;5073203;28;21051;-79
2023/09/26 11:12:11;;;;;;;8.73;4.88;;;;;;;21.46;39.04;94164.09;5090280;28;20679;-80
2023/09/26 11:14:37;;;;;;;16.75;4.97;;;;;;;21.32;39.44;94166.66;5092630;28;20027;-79
2023/09/26 11:17:04;;;;;;;9.25;4.45;;;;;;;21.54;39.35;94164.16;5083392;28;21081;-79
2023/09/26 11:19:30;;;;;;;12.00;4.57;;;;;;;21.73;39.14;94162.03;5085764;28;20887;-79
2023/09/26 11:21:59;;;;;;;24.02;5.78;;;;;;;21.25;40.26;94158.50;5075469;28;20065;-79
2023/09/26 11:24:31;;;;;;;19.27;4.47;;;;;;;21.56;39.53;94146.41;5073214;28;20040;-77